Time;durP1;ratioP1;P1;durP2;ratioP2;P2;SDS_P1;SDS_P2;PMS_P1;PMS_P2;Temp;Humidity;BMP_temperature;BMP_pressure;BME280_temperature;BME280_humidity;BME280_pressure;Samples;Min_cycle;Max_cycle;Signal;HPM_P1;HPM_P2
2021/04/02 00:01:24;;;;;;;2.42;1.20;;;6.70;67.50;;;;;;4916587;29;20040;-87
2021/04/02 00:03:49;;;;;;;2.58;1.48;;;6.70;67.50;;;;;;4917990;29;20603;-89
2021/04/02 00:06:15;;;;;;;3.45;1.35;;;6.70;67.50;;;;;;4918857;29;20115;-89
2021/04/02 00:08:41;;;;;;;3.53;1.73;;;6.70;67.60;;;;;;4918327;29;20357;-88
2021/04/02 00:11:10;;;;;;;2.22;1.40;;;6.60;67.80;;;;;;4918879;29;20024;-88
2021/04/02 00:13:47;;;;;;;2.97;1.48;;;6.50;67.90;;;;;;4918476;29;20082;-89
2021/04/02 00:16:15;;;;;;;3.47;1.70;;;6.50;68.00;;;;;;4917973;29;20039;-89
2021/04/02 00:18:41;;;;;;;2.03;1.27;;;6.40;68.20;;;;;;4917744;29;20171;-88
2021/04/02 00:21:07;;;;;;;4.15;2.00;;;6.40;68.30;;;;;;4917916;29;20126;-89
2021/04/02 00:23:34;;;;;;;3.70;1.50;;;6.30;68.40;;;;;;4917933;29;20024;-87
2021/04/02 00:26:01;;;;;;;4.03;1.70;;;6.30;69.10;;;;;;4917725;29;20035;-89
2021/04/02 00:28:28;;;;;;;5.45;1.92;;;6.30;68.60;;;;;;4917331;29;20039;-87
2021/04/02 00:30:56;;;;;;;5.07;1.80;;;6.20;68.60;;;;;;4918451;29;20380;-89
2021/04/02 00:33:25;;;;;;;3.17;1.80;;;6.10;68.70;;;;;;4918119;29;20028;-88
2021/04/02 00:35:51;;;;;;;3.47;1.70;;;6.10;68.80;;;;;;4919139;29;20027;-90
2021/04/02 00:38:17;;;;;;;4.07;1.70;;;6.00;68.90;;;;;;4918113;29;20024;-89
2021/04/02 00:40:49;;;;;;;3.05;1.70;;;5.90;69.00;;;;;;4916784;29;20040;-89
2021/04/02 00:43:18;;;;;;;4.65;2.00;;;5.90;69.40;;;;;;4919147;29;20448;-88
2021/04/02 00:45:43;;;;;;;6.40;1.90;;;5.80;69.40;;;;;;4920599;29;20080;-88
2021/04/02 00:48:09;;;;;;;2.78;1.80;;;5.80;69.50;;;;;;4919923;29;20065;-89
2021/04/02 00:50:38;;;;;;;3.03;1.50;;;5.70;69.60;;;;;;4918327;29;20023;-89
2021/04/02 00:53:04;;;;;;;2.40;1.25;;;5.70;69.60;;;;;;4934060;29;20020;-88
2021/04/02 00:55:30;;;;;;;4.47;1.70;;;5.70;69.60;;;;;;4920130;29;20460;-89
2021/04/02 00:57:56;;;;;;;5.47;1.85;;;5.60;69.80;;;;;;4917191;29;20677;-87
2021/04/02 01:00:22;;;;;;;5.75;2.05;;;5.50;69.80;;;;;;4917270;29;20123;-88
2021/04/02 01:02:48;;;;;;;4.10;1.88;;;5.50;69.90;;;;;;4914907;29;20475;-88
2021/04/02 01:05:17;;;;;;;2.90;1.38;;;5.50;70.00;;;;;;4924645;29;20043;-87
2021/04/02 01:07:54;;;;;;;4.63;1.88;;;5.50;70.00;;;;;;4917821;29;20028;-88
2021/04/02 01:10:21;;;;;;;3.33;1.83;;;5.50;70.20;;;;;;4917505;29;20040;-87
2021/04/02 01:12:52;;;;;;;4.70;1.67;;;5.40;70.20;;;;;;4922137;29;20039;-89
2021/04/02 01:15:30;;;;;;;3.88;1.50;;;5.40;70.20;;;;;;4920578;29;20060;-85
2021/04/02 01:17:59;;;;;;;4.85;1.73;;;5.40;70.10;;;;;;4916012;29;20459;-87
2021/04/02 01:20:29;;;;;;;4.57;1.88;;;5.40;70.60;;;;;;4918844;29;20092;-87
2021/04/02 01:22:59;;;;;;;5.50;1.63;;;5.30;70.00;;;;;;4896715;29;20016;-88
2021/04/02 01:25:42;;;;;;;4.90;1.40;;;5.30;70.10;;;;;;4913251;29;20032;-86
2021/04/02 01:28:39;;;;;;;4.20;1.35;;;5.30;70.00;;;;;;4928757;29;20505;-88
2021/04/02 01:31:05;;;;;;;2.30;1.48;;;5.40;70.00;;;;;;4912608;29;20244;-90
2021/04/02 01:33:32;;;;;;;4.70;1.67;;;5.30;70.00;;;;;;4951728;28;20079;-90
2021/04/02 01:35:59;;;;;;;3.78;1.60;;;5.30;69.90;;;;;;4898576;29;20021;-91
2021/04/02 01:38:33;;;;;;;4.60;1.58;;;5.30;69.90;;;;;;4915879;29;20035;-91
2021/04/02 01:41:11;;;;;;;5.28;1.65;;;5.30;69.90;;;;;;4917606;29;20044;-91
2021/04/02 01:43:45;;;;;;;3.50;1.58;;;5.30;69.90;;;;;;4918433;29;20031;-92
2021/04/02 01:46:13;;;;;;;3.95;1.60;;;5.30;69.80;;;;;;4917977;29;20028;-89
2021/04/02 01:48:41;;;;;;;3.85;1.35;;;5.20;69.80;;;;;;4917388;29;20024;-90
2021/04/02 01:51:08;;;;;;;1.60;1.00;;;5.30;69.90;;;;;;4917587;29;20061;-90
2021/04/02 01:53:41;;;;;;;2.35;1.13;;;5.30;69.80;;;;;;4916295;29;20032;-90
2021/04/02 01:56:07;;;;;;;;;;;5.30;69.70;;;;;;4917648;29;20047;-88
2021/04/02 01:58:36;;;;;;;3.40;1.40;;;5.20;69.50;;;;;;4915464;29;20009;-89
2021/04/02 02:01:03;;;;;;;4.25;1.45;;;5.20;69.80;;;;;;4916697;29;20036;-88
2021/04/02 02:03:30;;;;;;;2.85;1.38;;;5.20;69.90;;;;;;4915602;29;20047;-89
2021/04/02 02:05:56;;;;;;;2.72;1.30;;;5.20;69.90;;;;;;4916418;29;20036;-89
2021/04/02 02:08:23;;;;;;;2.55;1.42;;;5.20;70.00;;;;;;4916316;29;20676;-88
2021/04/02 02:10:58;;;;;;;5.28;1.42;;;5.20;70.00;;;;;;4914577;29;20573;-88
2021/04/02 02:13:24;;;;;;;3.45;1.42;;;5.20;70.00;;;;;;4915148;29;20060;-88
2021/04/02 02:15:53;;;;;;;5.97;1.45;;;5.20;70.10;;;;;;4915912;29;20024;-89
2021/04/02 02:18:23;;;;;;;1.83;1.00;;;5.10;70.10;;;;;;4914643;29;20036;-88
2021/04/02 02:20:50;;;;;;;2.85;1.20;;;5.10;70.00;;;;;;4916090;29;20040;-89
2021/04/02 02:23:16;;;;;;;2.08;1.20;;;5.20;70.00;;;;;;4916470;29;20024;-89
2021/04/02 02:25:42;;;;;;;3.70;1.30;;;5.20;70.00;;;;;;4915674;29;20028;-88
2021/04/02 02:28:08;;;;;;;3.05;1.10;;;5.20;70.00;;;;;;4915570;29;20059;-89
2021/04/02 02:30:34;;;;;;;2.28;1.20;;;5.20;70.10;;;;;;4915505;29;20060;-89
2021/04/02 02:33:00;;;;;;;1.67;1.08;;;5.10;70.20;;;;;;4915878;29;20044;-89
2021/04/02 02:35:26;;;;;;;2.85;1.10;;;5.20;70.40;;;;;;4914496;29;20084;-88
2021/04/02 02:37:53;;;;;;;3.95;1.38;;;5.10;70.40;;;;;;4915176;29;20020;-87
2021/04/02 02:40:33;;;;;;;2.75;1.38;;;5.10;70.40;;;;;;4915160;29;20028;-87
2021/04/02 02:43:00;;;;;;;3.22;1.20;;;5.10;70.40;;;;;;4915491;29;20497;-87
2021/04/02 02:45:28;;;;;;;3.20;1.25;;;5.10;70.50;;;;;;4915039;29;20475;-88
2021/04/02 02:47:54;;;;;;;4.05;1.20;;;5.10;70.40;;;;;;4915173;29;20642;-88
2021/04/02 02:50:28;;;;;;;3.03;1.00;;;5.20;70.30;;;;;;4914588;29;20160;-88
2021/04/02 02:52:55;;;;;;;3.63;1.55;;;5.20;70.30;;;;;;4915458;29;20028;-88
2021/04/02 02:55:23;;;;;;;1.63;0.90;;;5.20;70.50;;;;;;4915106;29;20020;-88
2021/04/02 02:57:50;;;;;;;4.72;1.40;;;5.20;70.50;;;;;;4914849;29;20043;-88
2021/04/02 03:00:23;;;;;;;4.43;1.58;;;5.20;70.60;;;;;;4914642;29;20036;-87
2021/04/02 03:02:53;;;;;;;3.13;1.35;;;5.10;70.80;;;;;;4913986;29;20111;-88
2021/04/02 03:05:22;;;;;;;3.75;1.20;;;5.10;70.90;;;;;;4915148;29;20562;-89
2021/04/02 03:07:52;;;;;;;3.00;1.30;;;5.10;70.90;;;;;;4913733;29;20024;-89
2021/04/02 03:10:18;;;;;;;2.58;1.30;;;5.10;71.00;;;;;;4914976;29;20075;-87
2021/04/02 03:12:45;;;;;;;2.67;1.20;;;5.10;71.70;;;;;;4915247;29;20468;-89
2021/04/02 03:15:14;;;;;;;4.13;1.50;;;5.10;71.10;;;;;;4915506;29;20107;-89
2021/04/02 03:17:42;;;;;;;3.80;1.33;;;5.10;71.30;;;;;;4914938;29;20039;-88
2021/04/02 03:20:09;;;;;;;2.55;1.40;;;5.10;71.60;;;;;;4914961;29;20084;-88
2021/04/02 03:22:35;;;;;;;1.95;1.52;;;5.10;71.70;;;;;;4915154;29;20514;-88
2021/04/02 03:25:10;;;;;;;2.05;1.30;;;5.00;71.70;;;;;;4914185;29;20028;-88
2021/04/02 03:27:39;;;;;;;3.40;1.40;;;5.10;71.80;;;;;;4914285;29;20031;-88
2021/04/02 03:30:10;;;;;;;2.10;1.30;;;5.10;71.90;;;;;;4914649;29;20036;-89
2021/04/02 03:32:39;;;;;;;3.33;1.40;;;5.10;72.00;;;;;;4914402;29;20448;-88
2021/04/02 03:35:07;;;;;;;4.10;1.55;;;5.10;71.90;;;;;;4912349;29;20103;-86
2021/04/02 03:37:34;;;;;;;5.05;1.70;;;5.10;72.10;;;;;;4914102;29;20035;-87
2021/04/02 03:40:04;;;;;;;3.70;1.48;;;5.10;72.30;;;;;;4913358;29;20036;-88
2021/04/02 03:42:30;;;;;;;3.15;1.33;;;5.10;72.40;;;;;;4920524;29;20495;-88
2021/04/02 03:44:58;;;;;;;4.50;1.55;;;5.20;72.50;;;;;;4934189;29;20114;-88
2021/04/02 03:47:26;;;;;;;4.60;1.65;;;5.10;72.70;;;;;;4919120;29;20031;-88
2021/04/02 03:49:53;;;;;;;2.60;1.60;;;5.20;72.90;;;;;;4913599;29;20403;-87
2021/04/02 03:52:27;;;;;;;3.75;1.60;;;5.10;72.90;;;;;;4914574;29;20087;-88
2021/04/02 03:54:54;;;;;;;1.77;1.30;;;5.20;72.90;;;;;;4913478;29;20028;-88
2021/04/02 03:57:25;;;;;;;3.17;1.67;;;5.20;72.80;;;;;;4913427;29;20100;-89
2021/04/02 03:59:53;;;;;;;3.53;1.58;;;5.30;72.90;;;;;;4914594;29;20056;-89
2021/04/02 04:02:20;;;;;;;4.88;2.00;;;5.30;73.00;;;;;;4915060;29;20040;-89
2021/04/02 04:04:47;;;;;;;3.65;1.50;;;5.40;73.20;;;;;;4915258;29;20684;-88
2021/04/02 04:07:14;;;;;;;6.43;2.10;;;5.40;73.40;;;;;;4913609;29;20032;-89
2021/04/02 04:09:41;;;;;;;5.85;2.15;;;5.40;73.90;;;;;;4914656;29;20051;-88
2021/04/02 04:12:09;;;;;;;4.20;1.83;;;5.30;74.60;;;;;;4915373;29;20033;-89
2021/04/02 04:14:36;;;;;;;3.97;1.67;;;5.40;74.50;;;;;;4915513;29;20021;-89
2021/04/02 04:17:03;;;;;;;4.32;1.50;;;5.40;74.50;;;;;;4914986;29;20475;-89
2021/04/02 04:19:29;;;;;;;5.75;1.98;;;5.40;74.60;;;;;;4915030;29;20091;-88
2021/04/02 04:21:57;;;;;;;5.20;2.05;;;5.40;74.40;;;;;;4914017;29;20040;-89
2021/04/02 04:24:25;;;;;;;6.88;1.70;;;5.40;74.50;;;;;;4914174;29;20443;-88
2021/04/02 04:26:53;;;;;;;4.55;2.00;;;5.40;74.40;;;;;;4915118;29;20028;-89
2021/04/02 04:29:28;;;;;;;6.63;2.20;;;5.40;74.40;;;;;;4916013;29;20100;-87
2021/04/02 04:31:56;;;;;;;6.30;1.80;;;5.40;74.60;;;;;;4915914;29;20040;-90
2021/04/02 04:34:22;;;;;;;5.00;1.80;;;5.40;74.70;;;;;;4915212;29;20111;-89
2021/04/02 04:36:49;;;;;;;6.80;2.05;;;5.30;74.70;;;;;;4916649;29;20519;-89
2021/04/02 04:39:15;;;;;;;4.50;1.80;;;5.40;74.80;;;;;;4918114;29;20027;-89
2021/04/02 04:41:43;;;;;;;3.40;1.70;;;5.30;74.70;;;;;;4917712;29;20037;-88
2021/04/02 04:44:12;;;;;;;3.60;1.48;;;5.30;74.60;;;;;;4916041;29;20088;-87
2021/04/02 04:46:37;;;;;;;6.30;2.10;;;5.30;74.50;;;;;;4915905;29;20036;-87
2021/04/02 04:49:04;;;;;;;2.92;1.85;;;5.30;74.60;;;;;;4916902;29;20043;-88
2021/04/02 04:51:33;;;;;;;3.65;1.98;;;5.30;74.80;;;;;;4915294;29;20048;-88
2021/04/02 04:54:00;;;;;;;2.13;1.40;;;5.20;74.80;;;;;;4917120;29;20048;-87
2021/04/02 04:56:31;;;;;;;6.72;1.80;;;5.30;75.60;;;;;;4917527;29;20031;-89
2021/04/02 04:59:01;;;;;;;5.30;2.13;;;5.30;75.10;;;;;;4916287;29;20491;-88
2021/04/02 05:01:33;;;;;;;4.60;1.73;;;5.20;75.10;;;;;;4917749;29;20107;-85
2021/04/02 05:03:59;;;;;;;4.28;1.83;;;5.20;75.20;;;;;;4916581;29;20050;-88
2021/04/02 05:06:26;;;;;;;4.90;1.70;;;5.20;75.20;;;;;;4925531;29;20384;-87
2021/04/02 05:08:54;;;;;;;4.72;1.60;;;5.10;75.20;;;;;;4924384;29;20031;-86
2021/04/02 05:11:23;;;;;;;4.13;1.70;;;5.10;75.20;;;;;;4920538;29;20039;-86
2021/04/02 05:13:50;;;;;;;3.80;1.70;;;5.10;75.20;;;;;;4930543;29;20472;-86
2021/04/02 05:16:18;;;;;;;3.15;1.90;;;5.10;75.20;;;;;;4929098;29;20024;-87
2021/04/02 05:18:47;;;;;;;3.90;1.70;;;5.10;75.20;;;;;;4920535;29;20604;-88
2021/04/02 05:21:13;;;;;;;5.22;2.20;;;5.10;75.20;;;;;;4934528;29;20024;-88
2021/04/02 05:23:39;;;;;;;4.95;1.85;;;5.10;75.30;;;;;;4925888;29;20024;-86
2021/04/02 05:26:05;;;;;;;4.63;1.88;;;5.10;75.30;;;;;;4928606;29;20028;-87
2021/04/02 05:28:31;;;;;;;4.95;2.00;;;5.10;75.20;;;;;;4920187;29;20020;-87
2021/04/02 05:30:56;;;;;;;3.90;1.80;;;5.10;75.20;;;;;;4922303;29;20047;-87
2021/04/02 05:33:22;;;;;;;3.13;1.60;;;5.10;75.10;;;;;;4920632;29;20022;-86
2021/04/02 05:35:47;;;;;;;4.57;1.65;;;5.10;75.00;;;;;;4925983;29;20399;-86
2021/04/02 05:38:13;;;;;;;3.58;1.50;;;5.10;74.90;;;;;;4928379;29;20020;-88
2021/04/02 05:40:38;;;;;;;5.35;1.50;;;5.20;74.70;;;;;;4916019;29;20035;-88
2021/04/02 05:43:44;;;;;;;3.42;1.52;;;5.20;74.50;;;;;;4916039;29;20028;-88
2021/04/02 05:46:12;;;;;;;3.00;1.55;;;5.20;74.40;;;;;;4919259;29;20039;-87
2021/04/02 05:48:43;;;;;;;3.88;1.60;;;5.60;74.30;;;;;;4916827;29;20031;-88
2021/04/02 05:51:10;;;;;;;3.53;1.60;;;6.40;73.40;;;;;;4918247;29;20039;-88
2021/04/02 05:53:37;;;;;;;5.97;2.10;;;7.30;71.30;;;;;;4928019;29;20475;-88
2021/04/02 05:56:05;;;;;;;4.10;1.77;;;8.30;68.90;;;;;;4916659;29;20415;-87
2021/04/02 05:58:31;;;;;;;5.50;1.70;;;9.10;66.50;;;;;;4914858;29;20035;-88
2021/04/02 06:00:57;;;;;;;3.05;1.38;;;9.90;64.50;;;;;;4914435;29;20028;-88
2021/04/02 06:03:24;;;;;;;5.28;1.50;;;10.70;62.40;;;;;;4919353;29;20040;-88
2021/04/02 06:05:49;;;;;;;3.92;1.58;;;11.30;60.60;;;;;;4916168;29;20150;-88
2021/04/02 06:08:17;;;;;;;2.35;1.45;;;11.90;59.20;;;;;;4915186;29;20028;-88
2021/04/02 06:10:42;;;;;;;4.68;1.60;;;12.50;58.00;;;;;;4914949;29;20036;-89
2021/04/02 06:13:08;;;;;;;4.47;1.48;;;13.00;56.50;;;;;;4923820;29;20031;-87
2021/04/02 06:15:35;;;;;;;4.25;1.50;;;13.50;55.70;;;;;;4920221;29;20028;-88
2021/04/02 06:18:04;;;;;;;3.85;1.30;;;14.10;54.50;;;;;;4920338;29;20020;-88
2021/04/02 06:20:36;;;;;;;6.07;1.58;;;14.70;53.40;;;;;;4942928;28;20035;-89
2021/04/02 06:23:17;;;;;;;5.50;1.60;;;15.10;52.20;;;;;;4917251;29;20028;-86
2021/04/02 06:26:04;;;;;;;4.78;1.50;;;15.40;51.00;;;;;;4918788;29;20362;-87
2021/04/02 06:28:32;;;;;;;4.13;1.60;;;15.80;50.10;;;;;;4921780;29;20096;-87
2021/04/02 06:31:11;;;;;;;4.15;1.40;;;16.10;49.20;;;;;;4924438;29;20037;-89
2021/04/02 06:33:45;;;;;;;2.63;1.17;;;16.50;48.60;;;;;;4913017;29;20595;-87
2021/04/02 06:36:18;;;;;;;4.55;1.58;;;17.00;47.60;;;;;;4919390;29;20428;-90
2021/04/02 06:38:49;;;;;;;2.15;1.20;;;17.00;46.70;;;;;;4921169;29;20047;-96
2021/04/02 06:41:16;;;;;;;5.50;1.63;;;17.40;46.50;;;;;;4922751;29;20107;-94
2021/04/02 06:43:45;;;;;;;4.95;1.70;;;17.40;45.40;;;;;;4921112;29;20130;-92
2021/04/02 06:46:13;;;;;;;4.10;1.50;;;17.60;45.50;;;;;;4922011;29;20052;-91
2021/04/02 06:48:39;;;;;;;4.63;1.27;;;17.80;44.60;;;;;;4923891;29;20087;-93
2021/04/02 06:51:19;;;;;;;4.40;1.42;;;18.10;44.20;;;;;;4925535;29;20036;-94
2021/04/02 06:53:54;;;;;;;3.40;1.30;;;18.20;43.40;;;;;;4931241;28;20024;-95
2021/04/02 06:56:21;;;;;;;3.75;1.10;;;18.30;43.10;;;;;;4914118;29;20122;-91
2021/04/02 06:58:49;;;;;;;5.07;1.42;;;18.40;42.50;;;;;;4908227;29;20028;-91
2021/04/02 07:01:16;;;;;;;5.13;1.30;;;18.50;42.30;;;;;;4913332;29;20123;-90
2021/04/02 07:03:46;;;;;;;3.13;1.10;;;18.80;42.10;;;;;;4931979;29;20485;-90
2021/04/02 07:06:14;;;;;;;3.22;1.30;;;18.90;41.20;;;;;;4919310;29;20036;-90
2021/04/02 07:08:41;;;;;;;3.47;1.10;;;18.80;40.90;;;;;;4915676;29;20087;-91
2021/04/02 07:11:10;;;;;;;3.40;1.23;;;18.50;40.90;;;;;;4914257;29;20064;-91
2021/04/02 07:13:44;;;;;;;5.22;1.60;;;17.80;41.20;;;;;;4914329;29;20059;-90
2021/04/02 07:16:11;;;;;;;3.40;1.13;;;17.00;41.30;;;;;;4916068;29;20031;-90
2021/04/02 07:18:38;;;;;;;3.53;1.13;;;16.80;42.70;;;;;;4915588;29;20062;-91
2021/04/02 07:21:05;;;;;;;5.18;1.42;;;16.60;43.20;;;;;;4913993;29;20024;-89
2021/04/02 07:23:31;;;;;;;3.80;1.30;;;16.10;42.60;;;;;;4925228;29;20028;-89
2021/04/02 07:25:57;;;;;;;3.92;1.17;;;15.70;43.80;;;;;;4916981;29;20035;-89
2021/04/02 07:28:26;;;;;;;5.05;1.50;;;15.00;44.80;;;;;;4915327;29;20028;-89
2021/04/02 07:30:53;;;;;;;4.57;1.60;;;14.00;46.50;;;;;;4921602;29;20040;-89
2021/04/02 07:33:20;;;;;;;3.00;1.10;;;13.30;48.20;;;;;;4930646;29;20107;-92
2021/04/02 07:35:55;;;;;;;4.60;1.40;;;12.90;49.50;;;;;;4914862;29;20060;-91
2021/04/02 07:38:26;;;;;;;4.80;1.05;;;12.40;50.10;;;;;;4926254;29;20102;-91
2021/04/02 07:40:52;;;;;;;3.90;1.33;;;12.00;51.00;;;;;;4915971;29;20117;-90
2021/04/02 07:43:18;;;;;;;5.22;1.50;;;11.80;51.50;;;;;;4915035;29;20031;-90
2021/04/02 07:45:51;;;;;;;5.25;1.67;;;11.40;51.60;;;;;;4925067;29;20507;-91
2021/04/02 07:48:23;;;;;;;4.65;1.30;;;11.20;52.20;;;;;;4927040;29;20067;-90
2021/04/02 07:50:50;;;;;;;3.67;1.10;;;10.90;52.80;;;;;;4922106;29;20495;-89
2021/04/02 07:53:39;;;;;;;3.95;1.15;;;10.80;53.20;;;;;;4925093;29;20051;-91
2021/04/02 07:56:17;;;;;;;4.32;1.40;;;10.60;53.40;;;;;;4926576;29;20035;-91
2021/04/02 07:58:52;;;;;;;3.35;1.20;;;10.70;54.10;;;;;;4930737;29;20032;-92
2021/04/02 08:01:19;;;;;;;5.68;1.52;;;10.70;53.80;;;;;;4925921;29;20043;-91
2021/04/02 08:03:46;;;;;;;3.55;1.05;;;10.60;54.10;;;;;;4916361;29;20088;-91
2021/04/02 08:06:33;;;;;;;3.10;1.23;;;10.40;54.40;;;;;;4929086;29;20021;-91
2021/04/02 08:09:01;;;;;;;4.15;1.10;;;10.10;54.70;;;;;;4917067;29;20498;-91
2021/04/02 08:11:44;;;;;;;4.22;1.40;;;10.00;55.20;;;;;;4921094;29;20036;-91
2021/04/02 08:14:11;;;;;;;;;;;9.80;55.50;;;;;;4924015;29;20111;-93
2021/04/02 08:16:43;;;;;;;4.70;1.48;;;9.60;56.00;;;;;;4923556;29;19998;-89
2021/04/02 08:19:10;;;;;;;4.85;1.55;;;9.40;56.40;;;;;;4916760;29;20685;-91
2021/04/02 08:21:42;;;;;;;3.75;1.23;;;9.30;56.60;;;;;;4928083;29;20443;-91
2021/04/02 08:24:10;;;;;;;4.03;1.80;;;9.20;56.90;;;;;;4924452;29;20046;-89
2021/04/02 08:26:37;;;;;;;5.28;1.95;;;9.10;57.10;;;;;;4926981;29;20276;-91
2021/04/02 08:29:05;;;;;;;5.13;1.85;;;9.00;57.60;;;;;;4916608;29;20123;-90
2021/04/02 08:31:32;;;;;;;4.15;1.73;;;9.10;57.60;;;;;;4921623;29;20036;-90
2021/04/02 08:33:59;;;;;;;4.88;1.95;;;9.10;57.40;;;;;;4922236;29;20048;-90
2021/04/02 08:36:25;;;;;;;3.78;1.80;;;9.00;57.40;;;;;;4934163;29;20128;-89
2021/04/02 08:38:53;;;;;;;4.05;1.40;;;9.00;57.70;;;;;;4922811;29;20083;-92
2021/04/02 08:41:21;;;;;;;5.07;1.80;;;9.10;57.50;;;;;;4926525;29;20051;-92
2021/04/02 08:43:47;;;;;;;4.47;1.40;;;9.20;57.20;;;;;;4924367;29;20036;-87
2021/04/02 08:46:17;;;;;;;3.85;1.60;;;9.20;57.00;;;;;;4920863;29;20027;-88
2021/04/02 08:48:46;;;;;;;4.70;1.73;;;9.20;57.40;;;;;;4933008;29;20028;-89
2021/04/02 08:51:21;;;;;;;3.38;1.70;;;9.20;56.80;;;;;;4920900;29;20079;-88
2021/04/02 08:53:47;;;;;;;6.25;2.15;;;9.20;56.90;;;;;;4920003;29;20055;-89
2021/04/02 08:56:20;;;;;;;5.65;2.30;;;9.20;56.90;;;;;;4926396;29;20055;-90
2021/04/02 08:58:47;;;;;;;3.83;1.67;;;9.00;56.90;;;;;;4931241;29;20090;-88
2021/04/02 09:01:15;;;;;;;3.72;1.70;;;9.00;57.30;;;;;;4924719;29;20027;-91
2021/04/02 09:03:42;;;;;;;3.25;1.40;;;9.00;57.20;;;;;;4923385;29;20020;-91
2021/04/02 09:06:09;;;;;;;5.20;1.83;;;9.00;57.20;;;;;;4923666;29;20019;-90
2021/04/02 09:08:37;;;;;;;5.07;1.60;;;9.00;57.20;;;;;;4930382;29;20031;-92
2021/04/02 09:11:11;;;;;;;4.05;2.00;;;8.90;57.40;;;;;;4925910;29;20060;-90
2021/04/02 09:13:38;;;;;;;5.85;2.30;;;9.00;57.50;;;;;;4929805;29;20020;-91
2021/04/02 09:16:06;;;;;;;4.07;2.22;;;8.90;57.60;;;;;;4917959;29;20115;-90
2021/04/02 09:18:31;;;;;;;5.38;2.03;;;8.90;57.70;;;;;;4925688;29;20080;-93
2021/04/02 09:20:58;;;;;;;4.03;1.60;;;8.80;57.70;;;;;;4923265;29;20061;-92
2021/04/02 09:23:30;;;;;;;5.55;1.90;;;8.80;57.80;;;;;;4917007;29;20051;-91
2021/04/02 09:26:00;;;;;;;2.85;1.60;;;8.70;57.90;;;;;;4923500;29;20123;-92
2021/04/02 09:28:29;;;;;;;5.60;1.80;;;8.80;58.00;;;;;;4933206;29;20495;-90
2021/04/02 09:31:19;;;;;;;3.75;2.10;;;8.80;57.90;;;;;;4919543;29;20040;-91
2021/04/02 09:33:58;;;;;;;4.63;2.45;;;8.90;57.80;;;;;;4944378;29;20058;-91
2021/04/02 09:36:36;;;;;;;5.65;2.50;;;8.90;57.70;;;;;;4916693;29;20083;-91
2021/04/02 09:39:22;;;;;;;7.32;2.50;;;8.90;57.70;;;;;;4927878;29;20035;-93
2021/04/02 09:41:59;;;;;;;5.55;2.38;;;8.90;57.60;;;;;;4926079;29;20122;-91
2021/04/02 09:44:39;;;;;;;8.30;3.20;;;9.00;57.30;;;;;;4934137;28;20463;-93
2021/04/02 09:47:13;;;;;;;4.75;2.50;;;8.90;57.10;;;;;;4936889;29;20019;-92
2021/04/02 09:49:41;;;;;;;5.18;2.45;;;9.00;57.30;;;;;;4941166;29;20050;-90
2021/04/02 09:52:08;;;;;;;9.05;2.53;;;9.00;57.20;;;;;;4922149;29;20043;-91
2021/04/02 09:54:37;;;;;;;6.45;3.00;;;9.10;57.20;;;;;;4914486;29;20103;-92
2021/04/02 09:57:08;;;;;;;5.80;2.40;;;9.10;56.80;;;;;;4900535;29;20039;-92
2021/04/02 09:59:35;;;;;;;4.95;2.40;;;9.10;56.70;;;;;;4919282;29;20028;-95
2021/04/02 10:02:15;;;;;;;5.13;2.72;;;9.20;56.60;;;;;;4932073;29;20043;-93
2021/04/02 10:04:41;;;;;;;4.97;2.20;;;9.30;56.50;;;;;;4921613;29;20132;-93
2021/04/02 10:07:06;;;;;;;6.22;2.35;;;9.30;56.50;;;;;;4917360;29;20115;-90
2021/04/02 10:09:32;;;;;;;8.43;3.03;;;9.30;56.40;;;;;;4919945;29;20027;-89
2021/04/02 10:11:58;;;;;;;3.85;2.00;;;9.20;56.00;;;;;;4918387;29;20032;-93
2021/04/02 10:14:23;;;;;;;4.97;2.17;;;9.20;56.20;;;;;;4916517;29;20154;-93
2021/04/02 10:16:49;;;;;;;4.68;2.10;;;9.30;56.10;;;;;;4917534;29;20495;-92
2021/04/02 10:19:28;;;;;;;4.10;1.80;;;9.40;55.80;;;;;;4915158;29;20490;-92
2021/04/02 10:21:53;;;;;;;4.57;1.80;;;9.50;55.40;;;;;;4921418;29;20025;-94
2021/04/02 10:24:19;;;;;;;5.25;1.73;;;9.60;55.20;;;;;;4929728;29;20032;-92
2021/04/02 10:26:46;;;;;;;4.18;1.73;;;9.80;55.00;;;;;;4917755;29;20388;-93
2021/04/02 10:29:12;;;;;;;3.63;1.75;;;9.90;54.60;;;;;;4928263;29;20024;-92
2021/04/02 10:31:38;;;;;;;4.22;1.80;;;10.00;54.30;;;;;;4922927;29;20031;-94
2021/04/02 10:34:09;;;;;;;7.88;1.88;;;10.20;54.10;;;;;;4924835;29;20055;-94
2021/04/02 10:36:34;;;;;;;3.80;1.80;;;10.20;53.90;;;;;;4919956;29;20032;-93
2021/04/02 10:39:05;;;;;;;4.55;2.03;;;10.20;53.80;;;;;;4917267;29;20028;-94
2021/04/02 10:41:30;;;;;;;6.22;1.88;;;10.30;53.50;;;;;;4918029;29;20035;-93
2021/04/02 10:43:56;;;;;;;5.45;1.67;;;10.30;53.50;;;;;;4918789;29;20404;-91
2021/04/02 10:46:22;;;;;;;2.88;1.40;;;10.30;53.30;;;;;;4918251;29;20028;-91
2021/04/02 10:48:47;;;;;;;5.00;2.10;;;10.40;53.50;;;;;;4914909;29;20036;-92
2021/04/02 10:51:13;;;;;;;3.10;1.55;;;10.40;53.40;;;;;;4931454;29;20036;-92
2021/04/02 10:53:38;;;;;;;5.93;1.85;;;10.40;53.40;;;;;;4924836;29;20024;-92
2021/04/02 10:56:05;;;;;;;4.07;1.35;;;10.40;53.40;;;;;;4931467;29;20436;-92
2021/04/02 10:58:32;;;;;;;2.88;1.60;;;10.40;53.60;;;;;;4915910;29;20103;-93
2021/04/02 11:01:00;;;;;;;4.32;1.40;;;10.40;53.60;;;;;;4916687;29;20062;-93
2021/04/02 11:03:26;;;;;;;6.43;1.80;;;10.50;53.40;;;;;;4914778;29;20059;-92
2021/04/02 11:06:01;;;;;;;4.60;1.60;;;10.50;52.90;;;;;;4922587;29;20055;-93
2021/04/02 11:08:27;;;;;;;6.70;1.70;;;10.60;53.20;;;;;;4923582;29;20472;-92
2021/04/02 11:10:52;;;;;;;4.18;1.60;;;10.60;52.00;;;;;;4917135;29;20044;-93
2021/04/02 11:13:22;;;;;;;4.45;1.42;;;10.50;52.40;;;;;;4914897;29;20083;-93
2021/04/02 11:15:48;;;;;;;3.65;1.52;;;10.60;52.40;;;;;;4915099;29;20040;-91
2021/04/02 11:18:13;;;;;;;5.35;1.77;;;10.70;52.40;;;;;;4917332;29;20548;-92
2021/04/02 11:20:39;;;;;;;5.13;1.58;;;10.70;52.00;;;;;;4929103;29;20040;-92
2021/04/02 11:23:07;;;;;;;3.45;1.50;;;10.80;52.30;;;;;;4915036;29;20497;-92
2021/04/02 11:25:33;;;;;;;3.42;1.40;;;10.80;52.10;;;;;;4916410;29;20209;-95
2021/04/02 11:27:59;;;;;;;5.25;1.77;;;10.90;51.90;;;;;;4917894;29;20036;-92
2021/04/02 11:30:24;;;;;;;4.90;1.75;;;10.90;51.70;;;;;;4912487;29;20136;-96
2021/04/02 11:32:50;;;;;;;2.40;1.30;;;10.90;51.60;;;;;;4925623;29;20067;-96
2021/04/02 11:35:18;;;;;;;3.83;1.50;;;11.00;51.30;;;;;;4926004;29;20035;-96
2021/04/02 11:37:44;;;;;;;4.03;1.70;;;11.10;51.10;;;;;;4920029;29;20039;-94
2021/04/02 11:40:12;;;;;;;5.57;1.92;;;11.10;51.30;;;;;;4921512;29;20387;-96
2021/04/02 11:42:38;;;;;;;7.90;1.92;;;11.20;51.20;;;;;;4921022;29;20115;-94
2021/04/02 11:45:05;;;;;;;3.97;1.70;;;11.00;50.60;;;;;;4919213;29;20061;-91
2021/04/02 11:47:30;;;;;;;3.80;1.67;;;11.00;50.90;;;;;;4925384;29;20087;-92
2021/04/02 11:49:56;;;;;;;4.25;1.48;;;11.00;51.00;;;;;;4917767;29;20094;-91
2021/04/02 11:52:21;;;;;;;4.97;1.70;;;11.00;51.30;;;;;;4920141;29;20036;-90
2021/04/02 11:54:47;;;;;;;4.60;1.50;;;11.00;51.00;;;;;;4921258;29;20078;-93
2021/04/02 11:57:13;;;;;;;4.55;1.40;;;11.00;50.80;;;;;;4925813;29;20039;-96
2021/04/02 11:59:42;;;;;;;4.45;1.55;;;11.20;50.80;;;;;;4951317;29;20035;-96
2021/04/02 12:02:09;;;;;;;6.05;2.08;;;11.30;50.50;;;;;;4908194;29;20044;-94
2021/04/02 12:04:42;;;;;;;3.03;1.50;;;11.30;50.60;;;;;;4925990;29;20055;-95
2021/04/02 12:07:07;;;;;;;4.20;1.70;;;11.30;50.70;;;;;;4924080;29;20064;-96
2021/04/02 12:09:33;;;;;;;5.97;1.70;;;11.30;50.70;;;;;;4926438;29;20020;-96
2021/04/02 12:11:58;;;;;;;4.85;1.77;;;11.30;51.00;;;;;;4931264;29;20040;-92
2021/04/02 12:14:25;;;;;;;4.45;1.58;;;11.20;50.80;;;;;;4933788;29;20104;-92
2021/04/02 12:16:51;;;;;;;4.00;1.60;;;11.20;51.10;;;;;;4930388;29;20030;-92
2021/04/02 12:19:17;;;;;;;5.57;1.70;;;11.10;51.30;;;;;;4923251;29;20043;-95
2021/04/02 12:21:43;;;;;;;3.95;1.75;;;11.10;51.40;;;;;;4930672;29;20340;-93
2021/04/02 12:24:09;;;;;;;3.80;1.90;;;11.00;51.50;;;;;;4931745;29;20023;-93
2021/04/02 12:26:38;;;;;;;5.75;1.65;;;10.90;51.60;;;;;;4934399;29;20019;-92
2021/04/02 12:29:03;;;;;;;5.53;1.73;;;10.80;51.80;;;;;;4925712;29;20095;-92
2021/04/02 12:31:29;;;;;;;4.20;1.73;;;10.80;52.00;;;;;;4926751;29;20130;-92
2021/04/02 12:33:55;;;;;;;4.95;1.83;;;10.80;52.10;;;;;;4934622;29;20498;-88
2021/04/02 12:36:20;;;;;;;6.43;1.88;;;10.70;52.10;;;;;;4929713;29;20087;-91
2021/04/02 12:38:49;;;;;;;6.30;1.80;;;10.70;52.20;;;;;;4925917;29;20031;-91
2021/04/02 12:41:15;;;;;;;4.88;1.75;;;10.70;52.80;;;;;;4925212;29;20039;-92
2021/04/02 12:43:40;;;;;;;5.35;1.77;;;10.70;52.20;;;;;;4936181;29;20023;-92
2021/04/02 12:46:06;;;;;;;6.05;1.75;;;10.60;52.50;;;;;;4926418;29;20042;-92
2021/04/02 12:48:31;;;;;;;3.80;1.60;;;10.60;52.40;;;;;;4919331;29;20020;-92
2021/04/02 12:50:58;;;;;;;5.85;1.73;;;10.60;52.50;;;;;;4917084;29;20591;-94
2021/04/02 12:53:25;;;;;;;4.90;1.95;;;10.60;52.60;;;;;;4919712;29;20075;-92
2021/04/02 12:55:53;;;;;;;4.30;1.67;;;10.50;52.70;;;;;;4919825;29;20024;-92
2021/04/02 12:58:19;;;;;;;5.75;1.70;;;10.40;53.00;;;;;;4920647;29;20027;-92
2021/04/02 13:00:45;;;;;;;3.33;1.42;;;10.40;53.20;;;;;;4930195;29;20039;-93